Latest Weather Observations for Cape Leeuwin

IDW60801

Issued at 10:13 am WST Tuesday 22 September 2020 (issued every 10 minutes, with the page automatically refreshed every 10 minutes)

About weather observations | Map of weather stations | Latest weather observations for WA | Other Formats
Station Details ID: 009518 Name: CAPE LEEUWIN Lat: -34.37 Lon: 115.14 Height: 13.0 m
Data from the previous 72 hours. | See also: Recent months at Cape Leeuwin
Date/Time
WST
Temp
°C
App
Temp
°C
Dew
Point
°C
Rel
Hum
%
Delta-T
°C
Wind Press
QNH
hPa
Press
MSL
hPa
Rain since
9am
mm
Dir  Spd
km/h
Gust
km/h
Spd
kts
Gust
kts
22/10:00am 15.8 11.8 9.2 65 3.4 WSW 20 24 11 13 1024.0 1024.0 0.0
22/09:30am 15.3 11.2 8.8 65 3.3 WSW 20 28 11 15 1023.9 1023.9 0.0
22/09:00am 14.8 11.1 9.4 70 2.8 WSW 19 24 10 13 1023.7 1023.7 2.2
22/08:30am 15.1 11.6 8.8 66 3.2 WSW 17 20 9 11 1023.4 1023.4 2.2
22/08:00am 14.7 10.8 8.6 67 3.1 SW 19 24 10 13 1023.2 1023.2 2.2
22/07:30am 14.1 10.6 8.7 70 2.7 SW 17 22 9 12 1022.8 1022.8 2.2
22/07:00am 13.4 8.8 8.3 71 2.5 WSW 22 30 12 16 1022.5 1022.5 2.2
22/06:30am 13.1 8.5 8.2 72 2.4 SW 22 28 12 15 1022.1 1022.1 2.2
22/06:00am 13.1 8.6 8.4 73 2.3 SW 22 28 12 15 1021.8 1021.8 2.2
22/05:30am 13.2 8.3 8.5 73 2.3 SW 24 30 13 16 1021.5 1021.5 2.2
22/05:00am 13.6 8.0 8.9 73 2.4 WSW 28 33 15 18 1021.3 1021.3 2.2
22/04:30am 13.8 8.7 9.3 74 2.3 WSW 26 32 14 17 1021.1 1021.1 2.2
22/04:00am 13.9 8.5 9.5 75 2.2 WSW 28 35 15 19 1020.9 1020.9 2.2
22/03:30am 13.8 8.4 9.6 76 2.2 WSW 28 35 15 19 1020.9 1020.9 2.2
22/03:00am 13.6 9.0 9.6 77 2.0 WSW 24 32 13 17 1020.8 1020.8 2.2
22/02:30am 13.7 9.2 9.9 78 2.0 SW 24 32 13 17 1020.7 1020.7 2.2
22/02:00am 14.0 8.4 10.0 77 2.1 SW 30 35 16 19 1020.7 1020.7 2.2
22/01:30am 14.2 8.3 10.4 78 2.0 SW 32 35 17 19 1020.8 1020.8 2.2
22/01:00am 14.3 8.8 10.5 78 2.0 SW 30 39 16 21 1020.7 1020.7 2.2
22/12:30am 14.4 8.9 10.4 77 2.1 SW 30 37 16 20 1020.7 1020.7 2.2
22/12:00am 14.4 8.5 10.4 77 2.1 SW 32 39 17 21 1020.5 1020.5 2.2
 
Date/Time
WST
Temp
°C
App
Temp
°C
Dew
Point
°C
Rel
Hum
%
Delta-T
°C
Wind Press
QNH
hPa
Press
MSL
hPa
Rain since
9am
mm
Dir  Spd
km/h
Gust
km/h
Spd
kts
Gust
kts
21/11:30pm 14.8 8.9 11.2 79 1.9 WSW 33 41 18 22 1020.6 1020.6 2.2
21/11:00pm 14.7 9.1 11.5 81 1.7 WSW 32 39 17 21 1020.6 1020.6 2.2
21/10:30pm 14.8 9.1 11.2 79 1.9 WSW 32 35 17 19 1020.8 1020.8 2.2
21/10:00pm 14.9 9.3 11.5 80 1.8 WSW 32 39 17 21 1020.8 1020.8 2.2
21/09:30pm 14.8 8.3 11.6 81 1.7 WSW 37 41 20 22 1020.8 1020.8 2.2
21/09:00pm 14.8 8.3 11.8 82 1.6 WSW 37 43 20 23 1020.8 1020.8 2.2
21/08:30pm 14.9 7.7 11.9 82 1.6 WSW 41 48 22 26 1020.7 1020.7 2.2
21/08:00pm 14.9 8.3 12.6 86 1.3 WSW 39 48 21 26 1020.4 1020.4 2.2
21/07:30pm 14.4 8.2 12.8 90 0.9 WSW 37 48 20 26 1020.2 1020.2 2.2
21/07:00pm 15.1 8.0 13.3 89 1.0 W 43 54 23 29 1020.0 1020.0 2.2
21/06:30pm 15.4 7.7 13.2 87 1.2 W 46 56 25 30 1019.7 1019.7 1.6
21/06:00pm 15.0 7.8 13.2 89 1.0 WNW 43 50 23 27 1019.7 1019.7 1.6
21/05:30pm 14.9 8.1 13.1 89 1.0 WNW 41 50 22 27 1019.7 1019.7 1.6
21/05:00pm 14.9 8.1 13.1 89 1.0 WNW 41 48 22 26 1019.7 1019.7 1.6
21/04:30pm 14.8 7.5 13.3 91 0.8 WNW 44 57 24 31 1019.6 1019.6 1.0
21/04:00pm 14.9 7.9 12.6 86 1.3 WNW 41 46 22 25 1019.6 1019.6 0.2
21/03:30pm 15.3 9.5 12.6 84 1.5 NW 35 43 19 23 1019.7 1019.7 0.2
21/03:00pm 14.6 7.7 11.6 82 1.6 WNW 39 50 21 27 1019.8 1019.8 0.2
21/02:30pm 15.7 9.4 11.1 74 2.5 WNW 35 43 19 23 1019.7 1019.7 0.2
21/02:00pm 15.7 9.1 10.0 69 3.0 WNW 35 41 19 22 1019.9 1019.9 0.2
21/01:30pm 15.5 8.4 9.6 68 3.1 W 37 44 20 24 1020.1 1020.1 0.2
21/01:00pm 14.9 8.9 10.1 73 2.5 WNW 32 41 17 22 1020.4 1020.4 0.2
21/12:30pm 14.3 8.3 10.1 76 2.2 WNW 32 43 17 23 1020.6 1020.6 0.2
21/12:00pm 14.7 9.2 9.3 70 2.8 W 28 41 15 22 1020.8 1020.8 0.2
21/11:30am 14.9 9.2 8.4 65 3.3 W 28 33 15 18 1020.9 1020.9 0.2
21/11:00am 15.6 10.2 7.9 60 3.8 W 26 32 14 17 1020.9 1020.9 0.2
21/10:30am 15.0 8.2 7.5 61 3.7 W 33 39 18 21 1021.2 1021.2 0.2
21/10:00am 14.7 8.0 8.0 64 3.3 WSW 33 39 18 21 1021.3 1021.3 0.0
21/09:30am 14.2 6.6 7.5 64 3.3 WSW 37 44 20 24 1021.3 1021.3 0.0
21/09:00am 14.2 7.6 7.9 66 3.1 WSW 32 39 17 21 1021.1 1021.1 0.0
21/08:30am 13.9 6.9 6.7 62 3.5 WSW 33 43 18 23 1020.9 1020.9 0.0
21/08:00am 13.7 6.5 7.5 66 3.0 WSW 35 43 19 23 1020.8 1020.8 0.0
21/07:30am 13.3 6.5 7.1 66 3.0 WSW 32 44 17 24 1020.7 1020.7 0.0
21/07:00am 13.0 6.1 6.6 65 3.1 SW 32 41 17 22 1020.5 1020.5 0.0
21/06:30am 12.9 6.0 7.1 68 2.8 WSW 33 46 18 25 1020.3 1020.3 0.0
21/06:00am 12.4 5.4 6.0 65 3.0 SW 32 41 17 22 1020.3 1020.3 0.0
21/05:30am 12.5 4.8 7.0 69 2.6 SW 37 46 20 25 1020.0 1020.0 0.0
21/05:00am 12.3 5.1 7.6 73 2.3 SW 35 48 19 26 1020.0 1020.0 0.0
21/04:30am 12.1 4.8 7.2 72 2.4 SW 35 41 19 22 1019.8 1019.8 0.0
21/04:00am 12.4 4.0 7.5 72 2.4 WSW 41 48 22 26 1019.6 1019.6 0.0
21/03:30am 12.0 4.0 7.5 74 2.2 SW 39 46 21 25 1019.7 1019.7 0.0
21/03:11am 11.9 5.0 7.2 73 2.3 SW 33 48 18 26 1019.7 1019.7 0.0
21/03:00am 12.2 3.4 7.9 75 2.1 SW 44 59 24 32 1019.8 1019.8 0.0
21/02:52am 12.7 4.8 7.8 72 2.4 WSW 39 59 21 32 1019.6 1019.6 0.0
21/02:30am 12.1 3.1 7.2 72 2.4 SW 44 54 24 29 1019.7 1019.7 0.0
21/02:00am 12.4 4.5 7.7 73 2.3 WSW 39 57 21 31 1019.7 1019.7 0.0
21/01:54am 12.2 4.2 7.5 73 2.3 WSW 39 57 21 31 1019.7 1019.7 0.0
21/01:30am 12.5 4.4 7.0 69 2.6 SW 39 48 21 26 1019.7 1019.7 0.0
21/01:00am 12.5 4.2 5.9 64 3.1 SW 39 52 21 28 1019.9 1019.9 0.0
21/12:30am 12.7 4.6 7.0 68 2.7 SW 39 52 21 28 1019.6 1019.6 0.0
21/12:00am 12.4 3.7 5.8 64 3.1 SW 41 50 22 27 1019.6 1019.6 0.0
 
Date/Time
WST
Temp
°C
App
Temp
°C
Dew
Point
°C
Rel
Hum
%
Delta-T
°C
Wind Press
QNH
hPa
Press
MSL
hPa
Rain since
9am
mm
Dir  Spd
km/h
Gust
km/h
Spd
kts
Gust
kts
20/11:30pm 12.6 3.5 6.9 68 2.7 WSW 44 57 24 31 1019.5 1019.5 0.0
20/11:00pm 12.7 3.9 7.4 70 2.6 WSW 43 54 23 29 1019.5 1019.5 0.0
20/10:30pm 12.7 4.0 7.6 71 2.5 SW 43 52 23 28 1019.5 1019.5 0.0
20/10:00pm 12.6 3.9 8.5 76 2.0 WSW 44 52 24 28 1019.6 1019.6 0.0
20/09:30pm 12.8 3.9 7.5 70 2.6 SW 44 52 24 28 1019.4 1019.4 0.0
20/09:00pm 12.3 3.1 8.2 76 2.0 SW 46 57 25 31 1019.4 1019.4 0.0
20/08:30pm 12.8 4.7 8.7 76 2.0 WSW 41 52 22 28 1019.2 1019.2 0.0
20/08:00pm 12.7 3.5 8.2 74 2.2 SW 46 56 25 30 1019.0 1019.0 0.0
20/07:30pm 13.1 3.8 9.2 77 2.0 SW 48 56 26 30 1018.5 1018.5 0.0
20/07:00pm 13.0 3.7 9.3 78 1.9 WSW 48 57 26 31 1018.1 1018.1 0.0
20/06:30pm 12.5 2.7 8.6 77 1.9 SW 50 59 27 32 1017.8 1017.8 0.0
20/06:00pm 12.8 3.1 8.9 77 2.0 WSW 50 59 27 32 1017.4 1017.4 0.0
20/05:30pm 13.3 4.1 9.5 78 1.9 WSW 48 61 26 33 1017.1 1017.1 0.0
20/05:00pm 13.3 3.7 9.4 77 2.0 WSW 50 61 27 33 1016.7 1016.7 0.0
20/04:30pm 12.7 2.2 9.0 78 1.9 WSW 54 67 29 36 1016.5 1016.5 0.0
20/04:00pm 13.0 2.5 8.7 75 2.1 WSW 54 72 29 39 1016.1 1016.1 0.0
20/03:52pm 13.4 3.3 9.1 75 2.2 WSW 52 72 28 39 1015.9 1015.9 0.0
20/03:30pm 13.3 3.5 8.8 74 2.3 WSW 50 63 27 34 1015.7 1015.7 0.0
20/03:05pm 13.1 2.8 8.0 71 2.5 WSW 52 74 28 40 1015.4 1015.4 0.0
20/03:00pm 13.9 3.9 9.3 74 2.3 WSW 52 61 28 33 1015.4 1015.4 0.0
20/02:30pm 12.9 1.8 8.2 73 2.3 WSW 56 69 30 37 1015.3 1015.3 0.0
20/02:00pm 13.5 2.2 8.1 70 2.7 WSW 57 67 31 36 1014.9 1014.9 0.0
20/01:30pm 12.6 1.5 8.1 74 2.2 WSW 56 72 30 39 1014.9 1014.9 0.0
20/01:00pm 13.9 2.8 7.9 67 3.0 WSW 56 67 30 36 1014.5 1014.5 0.0
20/12:30pm 12.8 0.9 7.0 68 2.8 WSW 59 72 32 39 1014.5 1014.5 0.0
20/12:00pm 13.3 0.9 6.6 64 3.2 WSW 61 76 33 41 1014.1 1014.1 0.0
20/11:54am 13.4 2.0 7.4 67 2.9 WSW 57 76 31 41 1014.1 1014.1 0.0
20/11:30am 13.5 0.6 6.1 61 3.5 WSW 63 74 34 40 1013.9 1013.9 0.0
20/11:04am 12.8 0.9 6.8 67 2.9 WSW 59 78 32 42 1013.8 1013.8 0.0
20/11:00am 12.6 0.2 6.4 66 2.9 WSW 61 78 33 42 1013.8 1013.8 0.0
20/10:51am 13.6 1.3 6.9 64 3.2 WSW 61 80 33 43 1013.3 1013.3 0.0
20/10:30am 13.0 0.4 5.4 60 3.5 WSW 61 76 33 41 1013.4 1013.4 0.0
20/10:17am 12.9 -0.1 5.3 60 3.5 WSW 63 85 34 46 1013.0 1013.0 0.0
20/10:00am 12.6 0.4 7.5 71 2.5 WSW 61 78 33 42 1013.0 1013.0 0.0
20/09:34am 13.4 0.2 6.3 62 3.4 WSW 65 83 35 45 1012.6 1012.6 0.0
20/09:30am 13.0 -1.0 5.9 62 3.3 WSW 69 83 37 45 1012.6 1012.6 0.0
20/09:00am 13.0 0.0 7.0 67 2.9 WSW 65 83 35 45 1012.3 1012.3 4.2
20/08:38am 12.8 -0.7 6.8 67 2.9 WSW 67 85 36 46 1012.1 1012.1 4.2
20/08:30am 12.1 -2.2 5.7 65 3.0 WSW 70 85 38 46 1011.8 1011.8 4.2
20/08:13am 11.6 -1.6 6.3 70 2.5 WSW 65 85 35 46 1011.6 1011.6 4.2
20/08:00am 11.9 -1.1 7.4 74 2.2 WSW 65 78 35 42 1011.5 1011.5 4.2
20/07:30am 11.3 -2.0 7.4 77 1.9 WSW 67 91 36 49 1011.2 1011.2 4.2
20/07:21am 11.8 -0.3 7.7 76 2.0 WSW 61 82 33 44 1011.0 1011.0 4.2
20/07:00am 11.3 -1.7 7.2 76 2.0 WSW 65 82 35 44 1010.7 1010.7 4.2
20/06:35am 12.1 -1.0 6.8 70 2.5 WSW 65 83 35 45 1010.1 1010.1 3.8
20/06:30am 11.9 -1.6 6.6 70 2.5 WSW 67 83 36 45 1010.1 1010.1 3.8
20/06:00am 10.5 -2.6 6.6 77 1.8 WSW 65 93 35 50 1010.0 1010.0 3.8
20/05:41am 11.4 -1.7 6.7 73 2.2 WSW 65 96 35 52 1009.6 1009.6 3.6
20/05:30am 11.5 -1.7 6.2 70 2.5 WSW 65 80 35 43 1009.6 1009.6 3.6
20/05:13am 12.2 -1.7 6.5 68 2.7 WSW 69 87 37 47 1009.3 1009.3 3.6
20/05:00am 12.3 -0.8 6.8 69 2.6 WSW 65 80 35 43 1009.2 1009.2 3.6
20/04:30am 12.2 -1.2 6.9 70 2.5 WSW 67 85 36 46 1009.2 1009.2 3.6
20/04:00am 11.9 -2.4 5.5 65 3.0 WSW 70 85 38 46 1008.9 1008.9 3.6
20/03:30am 11.5 -2.4 6.6 72 2.3 WSW 69 83 37 45 1008.7 1008.7 3.6
20/03:09am 11.1 -2.9 6.8 75 2.0 WSW 70 89 38 48 1009.1 1009.1 3.6
20/03:00am 11.5 -2.5 6.0 69 2.6 WSW 69 85 37 46 1008.7 1008.7 3.6
20/02:30am 10.6 -2.8 6.9 78 1.8 WSW 67 93 36 50 1008.7 1008.7 3.2
20/02:00am 11.4 -1.9 5.9 69 2.6 WSW 65 87 35 47 1008.6 1008.6 3.0
20/01:38am 12.0 -2.0 6.3 68 2.7 WSW 69 87 37 47 1008.7 1008.7 3.0
20/01:30am 12.0 -2.1 6.5 69 2.6 WSW 70 85 38 46 1008.8 1008.8 3.0
20/01:00am 11.6 -2.1 5.5 66 2.8 WSW 67 85 36 46 1008.8 1008.8 3.0
20/12:30am 10.9 -2.4 5.9 71 2.3 WSW 65 83 35 45 1009.0 1009.0 3.0
20/12:10am 11.8 -1.7 6.5 70 2.5 W 67 89 36 48 1008.5 1008.5 2.8
20/12:00am 11.9 -0.6 5.8 66 2.9 WSW 61 78 33 42 1008.7 1008.7 2.8
 
Date/Time
WST
Temp
°C
App
Temp
°C
Dew
Point
°C
Rel
Hum
%
Delta-T
°C
Wind Press
QNH
hPa
Press
MSL
hPa
Rain since
9am
mm
Dir  Spd
km/h
Gust
km/h
Spd
kts
Gust
kts
19/11:30pm 11.2 -2.8 4.4 63 3.1 WSW 67 85 36 46 1009.0 1009.0 2.8
19/11:23pm 12.0 -0.8 6.3 68 2.7 WSW 63 83 34 45 1009.0 1009.0 2.8
19/11:00pm 12.0 -1.1 5.0 62 3.2 WSW 63 78 34 42 1009.1 1009.1 2.8
19/10:47pm 12.1 -0.7 4.6 60 3.4 WSW 61 80 33 43 1008.9 1008.9 2.8
19/10:30pm 11.7 -1.8 4.7 62 3.2 WSW 65 76 35 41 1009.1 1009.1 2.8
19/10:01pm 11.7 -1.2 4.2 60 3.4 WSW 61 82 33 44 1009.3 1009.3 2.8
19/10:00pm 12.0 -0.2 5.6 65 3.0 WSW 59 76 32 41 1009.2 1009.2 2.8
19/09:34pm 11.4 -0.5 5.3 66 2.8 WSW 57 76 31 41 1009.3 1009.3 2.8
19/09:30pm 11.3 -1.3 5.4 67 2.7 WSW 61 76 33 41 1009.2 1009.2 2.8
19/09:00pm 11.7 -1.0 5.1 64 3.0 WSW 61 80 33 43 1009.3 1009.3 2.8
19/08:56pm 11.8 -0.7 5.9 67 2.8 WSW 61 80 33 43 1009.3 1009.3 2.8
19/08:30pm 11.1 -0.7 5.6 69 2.5 WSW 57 69 31 37 1009.1 1009.1 2.8
19/08:14pm 12.1 0.3 5.9 66 2.9 WSW 57 82 31 44 1008.9 1008.9 2.4
19/08:00pm 12.2 0.4 5.6 64 3.1 WSW 57 72 31 39 1008.7 1008.7 2.4
19/07:35pm 12.0 -0.2 5.4 64 3.1 WSW 59 78 32 42 1008.5 1008.5 2.4
19/07:30pm 12.0 0.3 6.1 67 2.8 WSW 57 69 31 37 1008.5 1008.5 2.4
19/07:00pm 12.1 0.1 6.4 68 2.7 WSW 59 70 32 38 1008.0 1008.0 2.4
19/06:30pm 11.8 -0.4 5.4 65 3.0 WSW 59 72 32 39 1007.9 1007.9 2.4
19/06:00pm 11.8 0.2 6.7 71 2.4 WSW 57 74 31 40 1007.7 1007.7 2.4
19/05:30pm 12.4 0.8 6.7 68 2.7 WSW 57 69 31 37 1007.3 1007.3 2.4
19/05:00pm 12.9 1.7 8.2 73 2.3 WSW 57 69 31 37 1006.8 1006.8 2.4
19/04:30pm 12.2 2.4 8.5 78 1.8 W 50 70 27 38 1006.4 1006.4 2.4
19/04:27pm 11.9 2.3 7.8 76 2.0 W 48 67 26 36 1006.4 1006.4 2.4
19/04:00pm 11.4 0.4 6.7 73 2.2 W 54 63 29 34 1006.5 1006.5 2.4
19/03:47pm 11.6 1.3 6.5 71 2.4 W 50 72 27 39 1006.3 1006.3 2.2
19/03:30pm 11.2 1.1 7.3 77 1.9 WSW 50 63 27 34 1006.4 1006.4 2.2
19/03:15pm 10.8 0.7 7.3 79 1.7 WSW 50 74 27 40 1006.2 1006.2 2.2
19/03:13pm 11.1 2.1 7.2 77 1.9 W 44 69 24 37 1006.4 1006.4 2.2
19/03:00pm 11.8 2.1 7.5 75 2.1 WSW 48 59 26 32 1006.6 1006.6 2.2
19/02:30pm 11.9 2.0 8.4 79 1.7 WSW 50 59 27 32 1006.4 1006.4 2.2
19/02:00pm 12.0 -0.1 7.7 75 2.1 W 61 82 33 44 1005.6 1005.6 1.8
19/01:52pm 12.2 0.5 6.0 66 2.9 W 57 78 31 42 1005.5 1005.5 1.8
19/01:30pm 12.9 2.3 8.4 74 2.2 W 54 65 29 35 1005.4 1005.4 1.8
19/01:04pm 12.7 2.9 8.6 76 2.0 W 50 69 27 37 1005.4 1005.4 1.6
19/01:00pm 12.4 3.2 7.9 74 2.2 W 46 59 25 32 1005.3 1005.3 1.6
19/12:30pm 12.8 5.0 8.1 73 2.3 W 39 48 21 26 1005.6 1005.6 1.4
19/12:00pm 13.2 2.9 8.1 71 2.5 W 52 59 28 32 1005.6 1005.6 1.4
19/11:31am 12.5 0.5 8.0 74 2.2 W 61 82 33 44 1005.4 1005.4 1.4
19/11:30am 13.1 1.6 8.6 74 2.2 W 59 74 32 40 1005.4 1005.4 1.4
19/11:00am 14.2 2.5 9.2 72 2.6 W 61 74 33 40 1005.2 1005.2 1.4
19/10:53am 13.8 3.2 8.4 70 2.7 W 54 74 29 40 1005.2 1005.2 1.4
19/10:48am 13.6 5.1 9.3 75 2.2 W 44 65 24 35 1005.3 1005.3 1.4
19/10:30am 13.1 4.3 9.4 78 1.9 W 46 57 25 31 1005.9 1005.9 1.4
19/10:21am 12.5 4.1 9.0 79 1.8 W 43 54 23 29 1006.1 1006.1 1.4

Other formats

Comma delimited format used in spreadsheet applications
http://www.bom.gov.au/fwo/IDW60801/IDW60801.94601.axf

JavaScript Object Notation format (JSON) in row-major order
http://www.bom.gov.au/fwo/IDW60801/IDW60801.94601.json

Data quality

Most of these data are generated automatically and are frequently updated. Quality checks on data are not normally performed. It is possible for incorrect values to appear. Refer to information at About Latest Weather Observations and please check the disclaimer before using these data.